Time;durP1;ratioP1;P1;durP2;ratioP2;P2;SDS_P1;SDS_P2;PMS_P1;PMS_P2;Temp;Humidity;BMP_temperature;BMP_pressure;BME280_temperature;BME280_humidity;BME280_pressure;Samples;Min_cycle;Max_cycle;Signal;HPM_P1;HPM_P2
2022/04/04 00:01:44;;;;;;;12.65;6.78;;;;;;;0.70;99.24;100658.00;4994131;28;20390;-64
2022/04/04 00:04:09;;;;;;;13.75;7.72;;;;;;;0.61;99.96;100640.41;4993972;28;20453;-64
2022/04/04 00:06:35;;;;;;;11.55;7.35;;;;;;;0.55;99.82;100644.66;4993275;28;20030;-64
2022/04/04 00:09:00;;;;;;;13.15;8.00;;;;;;;0.51;100.00;100645.47;4994448;28;20037;-64
2022/04/04 00:11:25;;;;;;;11.73;7.03;;;;;;;0.52;100.00;100649.84;4994352;28;20029;-64
2022/04/04 00:13:51;;;;;;;14.68;8.60;;;;;;;0.54;100.00;100653.38;4994132;28;20434;-64
2022/04/04 00:16:16;;;;;;;16.92;8.68;;;;;;;0.55;100.00;100649.88;4975784;28;20102;-64
2022/04/04 00:18:42;;;;;;;11.57;8.30;;;;;;;0.57;100.00;100642.94;4994119;28;20478;-64
2022/04/04 00:21:07;;;;;;;16.20;8.93;;;;;;;0.56;100.00;100651.66;4993072;28;20033;-65
2022/04/04 00:23:33;;;;;;;13.85;8.05;;;;;;;0.51;100.00;100648.09;4993743;28;20394;-64
2022/04/04 00:25:58;;;;;;;14.55;8.60;;;;;;;0.51;100.00;100648.94;4993633;28;20037;-65
2022/04/04 00:28:23;;;;;;;13.82;7.05;;;;;;;0.52;100.00;100650.72;4993661;28;20030;-65
2022/04/04 00:30:49;;;;;;;13.85;8.57;;;;;;;0.51;100.00;100648.09;4993663;28;20064;-64
2022/04/04 00:33:14;;;;;;;14.40;7.80;;;;;;;0.54;100.00;100643.78;4994013;28;20121;-65
2022/04/04 00:35:40;;;;;;;13.27;7.90;;;;;;;0.63;100.00;100643.03;4993525;28;20085;-64
2022/04/04 00:38:08;;;;;;;17.85;8.18;;;;;;;0.65;100.00;100643.94;4976317;28;20470;-64
2022/04/04 00:40:34;;;;;;;15.88;9.10;;;;;;;0.70;100.00;100647.53;4993122;28;20034;-65
2022/04/04 00:42:59;;;;;;;16.10;9.48;;;;;;;0.73;100.00;100642.34;4975723;28;20030;-64
2022/04/04 00:45:25;;;;;;;21.85;10.10;;;;;;;0.70;100.00;100637.06;4993265;28;20034;-65
2022/04/04 00:47:50;;;;;;;16.75;9.10;;;;;;;0.70;100.00;100630.09;4993411;28;20060;-64
2022/04/04 00:50:15;;;;;;;15.23;8.18;;;;;;;0.61;100.00;100635.16;4993302;28;20053;-65
2022/04/04 00:52:41;;;;;;;14.63;7.80;;;;;;;0.51;100.00;100633.25;4993550;28;20070;-64
2022/04/04 00:55:07;;;;;;;16.48;8.45;;;;;;;0.42;100.00;100633.09;4993472;28;20037;-65
2022/04/04 00:57:34;;;;;;;13.40;8.23;;;;;;;0.32;100.00;100632.91;4992710;28;20030;-65
2022/04/04 01:00:00;;;;;;;15.13;7.72;;;;;;;0.15;100.00;100605.56;4993003;28;20498;-64
2022/04/04 01:02:26;;;;;;;12.52;7.85;;;;;;;0.32;100.00;100630.28;4992752;28;20034;-65
2022/04/04 01:04:51;;;;;;;12.57;8.20;;;;;;;0.32;100.00;100631.16;4992936;28;20049;-64
2022/04/04 01:07:16;;;;;;;13.13;7.93;;;;;;;0.22;100.00;100625.72;4991336;28;20026;-64
2022/04/04 01:09:42;;;;;;;12.98;7.65;;;;;;;0.22;100.00;100629.25;4992026;28;20037;-64
2022/04/04 01:12:12;;;;;;;13.80;9.75;;;;;;;0.21;100.00;100634.44;4993146;28;20105;-65
2022/04/04 01:14:41;;;;;;;12.73;7.18;;;;;;;0.25;100.00;100624.06;4993131;28;20018;-64
2022/04/04 01:17:08;;;;;;;11.00;7.43;;;;;;;0.28;100.00;100623.25;4991942;28;20033;-64
2022/04/04 01:19:34;;;;;;;12.57;7.43;;;;;;;0.22;100.00;100617.88;4991974;28;20034;-65
2022/04/04 01:22:00;;;;;;;11.25;7.57;;;;;;;0.22;100.00;100615.28;4992781;28;20025;-64
2022/04/04 01:24:26;;;;;;;12.05;6.88;;;;;;;0.17;99.86;100609.06;4992153;28;20394;-65
2022/04/04 01:26:53;;;;;;;11.40;6.60;;;;;;;0.24;99.60;100605.72;4992189;28;20026;-65
2022/04/04 01:29:22;;;;;;;8.77;5.75;;;;;;;0.26;99.24;100602.28;4992956;28;20026;-65
2022/04/04 01:31:49;;;;;;;8.35;6.20;;;;;;;0.18;98.44;100600.41;4974986;28;20112;-65
2022/04/04 01:34:17;;;;;;;12.27;6.43;;;;;;;0.12;97.89;100598.53;4992090;28;20153;-65
2022/04/04 01:36:43;;;;;;;13.02;5.88;;;;;;;0.08;98.24;100593.22;4992213;28;20042;-65
2022/04/04 01:39:08;;;;;;;8.07;5.07;;;;;;;0.12;97.49;100585.47;4992420;28;20022;-65
2022/04/04 01:41:34;;;;;;;8.95;5.50;;;;;;;0.07;97.43;100588.88;4992609;28;20030;-65
2022/04/04 01:43:59;;;;;;;10.05;5.93;;;;;;;0.07;97.75;100597.56;4992490;28;20176;-65
2022/04/04 01:46:25;;;;;;;8.45;5.93;;;;;;;0.02;97.45;100593.13;4992258;28;20533;-65
2022/04/04 01:48:55;;;;;;;9.35;5.28;;;;;;;0.03;97.04;100583.56;4992443;28;20386;-65
2022/04/04 01:51:21;;;;;;;9.35;5.78;;;;;;;-0.01;97.06;100583.47;4990029;28;20049;-65
2022/04/04 01:53:46;;;;;;;9.18;6.30;;;;;;;-0.05;97.14;100582.53;4991950;28;20037;-65
2022/04/04 01:56:12;;;;;;;10.27;5.88;;;;;;;0.26;96.26;100585.72;4991881;28;20026;-64
2022/04/04 01:58:39;;;;;;;9.98;6.20;;;;;;;0.32;94.98;100583.19;4992534;28;20030;-65
2022/04/04 02:01:16;;;;;;;12.15;6.68;;;;;;;0.38;94.33;100583.31;4991658;28;20457;-65
2022/04/04 02:03:44;;;;;;;10.50;5.88;;;;;;;0.36;93.80;100577.16;4992439;28;20072;-65
2022/04/04 02:06:09;;;;;;;7.40;5.88;;;;;;;0.29;93.20;100562.22;4992258;28;20517;-64
2022/04/04 02:08:35;;;;;;;7.50;6.07;;;;;;;0.39;93.84;100582.44;4992160;28;20034;-64
2022/04/04 02:11:02;;;;;;;11.15;6.90;;;;;;;0.41;93.34;100578.13;4991661;28;20040;-64
2022/04/04 02:13:28;;;;;;;9.60;6.10;;;;;;;0.43;93.22;100586.91;4991602;28;20038;-65
2022/04/04 02:15:56;;;;;;;10.52;6.65;;;;;;;0.45;92.10;100580.81;4991592;28;20034;-65
2022/04/04 02:18:21;;;;;;;10.13;7.13;;;;;;;0.48;92.65;100574.78;4992143;28;20030;-65
2022/04/04 02:20:47;;;;;;;10.98;6.53;;;;;;;0.43;93.37;100569.44;4994173;28;20382;-65
2022/04/04 02:23:17;;;;;;;9.15;6.15;;;;;;;0.41;93.19;100571.16;4996301;28;20034;-65
2022/04/04 02:25:44;;;;;;;8.95;6.47;;;;;;;0.40;93.06;100571.13;4995101;28;20023;-65
2022/04/04 02:28:10;;;;;;;9.73;6.43;;;;;;;0.42;92.69;100564.19;4995507;28;20049;-65
2022/04/04 02:30:36;;;;;;;10.93;7.45;;;;;;;0.44;92.92;100567.72;4995873;28;20635;-65
2022/04/04 02:33:01;;;;;;;16.45;7.75;;;;;;;0.42;93.64;100565.06;4995176;28;20394;-64
2022/04/04 02:35:27;;;;;;;14.60;7.85;;;;;;;0.40;93.06;100561.53;4995898;28;20022;-65
2022/04/04 02:37:53;;;;;;;17.00;7.53;;;;;;;0.30;93.55;100553.53;4995127;28;20037;-65
2022/04/04 02:40:19;;;;;;;11.23;7.22;;;;;;;0.29;93.26;100560.50;4995258;28;20030;-64
2022/04/04 02:42:45;;;;;;;10.13;6.82;;;;;;;0.24;92.66;100553.41;4995646;28;20470;-65
2022/04/04 02:45:10;;;;;;;13.60;8.20;;;;;;;0.21;92.90;100553.38;4995654;28;20136;-65
2022/04/04 02:47:35;;;;;;;14.68;6.53;;;;;;;0.06;93.87;100547.88;4995064;28;20524;-65
2022/04/04 02:50:01;;;;;;;12.18;7.63;;;;;;;-0.25;94.92;100557.75;4995157;28;20065;-65
2022/04/04 02:52:27;;;;;;;12.60;7.00;;;;;;;-0.35;95.63;100555.84;4995236;28;20057;-65
2022/04/04 02:54:52;;;;;;;14.43;7.00;;;;;;;-0.40;95.99;100560.09;4995041;28;20117;-65
2022/04/04 02:57:18;;;;;;;12.00;6.50;;;;;;;-0.42;96.15;100558.28;4995037;28;20041;-65
2022/04/04 02:59:46;;;;;;;11.63;7.15;;;;;;;-0.52;96.16;100549.41;4995474;28;20026;-64
2022/04/04 03:02:12;;;;;;;10.85;7.32;;;;;;;-0.43;96.71;100557.41;4995507;28;20478;-64
2022/04/04 03:04:40;;;;;;;12.18;7.30;;;;;;;-0.43;96.71;100560.00;4995352;28;20034;-65
2022/04/04 03:07:07;;;;;;;13.52;6.95;;;;;;;-0.42;96.95;100556.56;4994628;28;20031;-65
2022/04/04 03:09:32;;;;;;;9.70;7.05;;;;;;;-0.37;97.05;100547.09;4976888;28;20065;-65
2022/04/04 03:11:58;;;;;;;12.68;8.30;;;;;;;-0.21;97.15;100556.97;4993694;28;20125;-64
2022/04/04 03:14:23;;;;;;;8.13;6.18;;;;;;;-0.01;95.05;100553.00;4994716;28;20023;-65
2022/04/04 03:16:49;;;;;;;10.85;6.53;;;;;;;0.08;94.71;100549.66;4977458;28;20026;-65
2022/04/04 03:19:14;;;;;;;15.07;7.22;;;;;;;-0.30;95.66;100537.63;4994793;28;20068;-65
2022/04/04 03:21:40;;;;;;;9.40;6.07;;;;;;;-0.29;96.71;100561.19;4995339;28;20037;-65
2022/04/04 03:24:06;;;;;;;10.60;6.05;;;;;;;-0.35;97.00;100558.44;4993770;28;20038;-65
2022/04/04 03:26:32;;;;;;;10.18;6.40;;;;;;;-0.40;97.77;100559.19;4994152;28;20022;-65
2022/04/04 03:28:57;;;;;;;10.23;5.93;;;;;;;-0.45;98.31;100553.91;4994687;28;20025;-64
2022/04/04 03:31:23;;;;;;;9.88;7.40;;;;;;;-0.41;98.37;100550.47;4977057;28;20157;-64
2022/04/04 03:33:49;;;;;;;9.73;6.50;;;;;;;-0.39;98.69;100553.13;4994534;28;20030;-64
2022/04/04 03:36:14;;;;;;;11.38;6.88;;;;;;;-0.40;98.83;100551.38;4994915;28;20030;-65
2022/04/04 03:38:40;;;;;;;9.18;6.35;;;;;;;-0.49;99.07;100554.66;4995240;28;20022;-65
2022/04/04 03:41:05;;;;;;;11.25;6.07;;;;;;;-0.47;99.05;100552.97;4994457;28;20042;-65
2022/04/04 03:43:31;;;;;;;8.95;6.68;;;;;;;-0.51;99.21;100550.28;4976050;28;20057;-65
2022/04/04 03:45:56;;;;;;;10.85;6.47;;;;;;;-0.53;99.03;100554.59;4977006;28;20478;-65
2022/04/04 03:48:22;;;;;;;10.30;6.53;;;;;;;-0.56;99.11;100562.38;4994841;28;20501;-65
2022/04/04 03:50:51;;;;;;;7.55;5.45;;;;;;;-0.53;98.42;100559.81;4993891;28;20494;-65
2022/04/04 03:53:17;;;;;;;10.30;5.90;;;;;;;-0.62;98.32;100551.78;4994585;28;20480;-65
2022/04/04 03:55:43;;;;;;;8.05;5.88;;;;;;;-0.65;99.10;100555.22;4976712;28;20053;-64
2022/04/04 03:58:10;;;;;;;10.88;6.07;;;;;;;-0.64;99.71;100556.13;4994543;28;20038;-65
2022/04/04 04:00:39;;;;;;;10.38;6.07;;;;;;;-0.58;100.00;100551.00;4993707;28;20029;-65
2022/04/04 04:03:06;;;;;;;11.07;5.97;;;;;;;-0.61;100.00;100557.03;4993682;28;20018;-65
2022/04/04 04:05:31;;;;;;;11.07;6.35;;;;;;;-0.71;100.00;100549.00;4994265;28;20034;-65
2022/04/04 04:07:57;;;;;;;12.90;6.40;;;;;;;-0.63;100.00;100550.91;4994151;28;20030;-65
2022/04/04 04:10:23;;;;;;;9.48;5.95;;;;;;;-0.66;100.00;100553.44;4993981;28;20109;-65
2022/04/04 04:12:49;;;;;;;10.32;6.80;;;;;;;-0.67;99.70;100541.25;4993928;28;20020;-65
2022/04/04 04:15:17;;;;;;;7.63;5.68;;;;;;;-0.65;100.00;100542.16;4994218;28;20054;-65
2022/04/04 04:17:43;;;;;;;14.75;7.32;;;;;;;-0.64;100.00;100554.34;4993350;28;20026;-65
2022/04/04 04:20:22;;;;;;;11.55;7.03;;;;;;;-0.62;100.00;100539.59;4975396;28;20572;-64
2022/04/04 04:22:57;;;;;;;11.65;7.55;;;;;;;-0.63;100.00;100537.84;4993776;28;20509;-64
2022/04/04 04:25:27;;;;;;;11.38;7.70;;;;;;;-0.59;100.00;100538.78;4993684;28;20062;-64
2022/04/04 04:27:53;;;;;;;11.90;7.22;;;;;;;-0.71;100.00;100531.56;4993737;28;20022;-64
2022/04/04 04:30:21;;;;;;;11.63;7.82;;;;;;;-0.73;100.00;100530.69;4993725;28;20364;-64
2022/04/04 04:32:50;;;;;;;16.85;9.63;;;;;;;-0.60;100.00;100543.13;4993286;28;20050;-64
2022/04/04 04:35:17;;;;;;;20.63;9.45;;;;;;;-0.55;100.00;100544.13;4993415;28;20022;-64
2022/04/04 04:37:44;;;;;;;31.00;9.02;;;;;;;-0.50;100.00;100545.09;4992689;28;20472;-63
2022/04/04 04:40:10;;;;;;;14.90;8.20;;;;;;;-0.47;100.00;100545.13;4993087;28;20537;-64
2022/04/04 04:42:37;;;;;;;16.65;7.97;;;;;;;-0.45;100.00;100547.78;4992988;28;20109;-64
2022/04/04 04:45:05;;;;;;;26.60;9.25;;;;;;;-0.46;100.00;100551.25;4993351;28;20031;-63
2022/04/04 04:47:31;;;;;;;18.70;9.00;;;;;;;-0.45;100.00;100543.44;4993826;28;20390;-64
2022/04/04 04:49:57;;;;;;;21.90;8.48;;;;;;;-0.44;100.00;100539.06;4993004;28;20042;-63
2022/04/04 04:52:24;;;;;;;15.13;8.38;;;;;;;-0.49;100.00;100543.34;4993430;28;20034;-63
2022/04/04 04:54:49;;;;;;;12.75;8.55;;;;;;;-0.49;100.00;100540.72;4990874;28;20026;-63
2022/04/04 04:57:15;;;;;;;10.93;6.75;;;;;;;-0.47;100.00;100544.25;4992059;28;20026;-64
2022/04/04 04:59:41;;;;;;;15.85;8.35;;;;;;;-0.47;100.00;100539.91;4993270;28;20026;-64
2022/04/04 05:02:06;;;;;;;10.18;6.57;;;;;;;-0.46;100.00;100541.66;4993434;28;20034;-64
2022/04/04 05:04:32;;;;;;;13.10;7.32;;;;;;;-0.47;100.00;100525.97;4992948;28;20109;-64
2022/04/04 05:06:57;;;;;;;13.18;7.18;;;;;;;-0.45;100.00;100521.66;4993483;28;20108;-63
2022/04/04 05:09:23;;;;;;;12.25;7.57;;;;;;;-0.44;100.00;100533.84;4992757;28;20026;-63
2022/04/04 05:11:48;;;;;;;17.23;8.50;;;;;;;-0.48;100.00;100511.16;4992794;28;20030;-63
2022/04/04 05:14:16;;;;;;;22.73;8.75;;;;;;;-0.41;100.00;100524.34;4991786;28;20041;-63
2022/04/04 05:16:43;;;;;;;13.68;6.95;;;;;;;-0.41;100.00;100516.50;4993135;28;20080;-63
2022/04/04 05:19:09;;;;;;;22.33;8.88;;;;;;;-0.39;100.00;100517.44;4992790;28;20100;-63
2022/04/04 05:21:35;;;;;;;12.57;8.35;;;;;;;-0.34;100.00;100518.38;4992717;28;20478;-64
2022/04/04 05:24:01;;;;;;;18.52;10.35;;;;;;;-0.31;100.00;100518.44;4992428;28;20489;-64
2022/04/04 05:26:26;;;;;;;20.90;9.90;;;;;;;-0.23;100.00;100514.22;4992438;28;20033;-63
2022/04/04 05:28:52;;;;;;;13.30;8.70;;;;;;;-0.21;100.00;100529.94;4992593;28;20366;-64
2022/04/04 05:31:17;;;;;;;21.02;9.20;;;;;;;-0.23;100.00;100513.38;4991461;28;20097;-64
2022/04/04 05:33:43;;;;;;;49.47;11.23;;;;;;;-0.18;100.00;100504.75;4992601;28;20030;-64
2022/04/04 05:36:08;;;;;;;17.83;8.23;;;;;;;0.23;100.00;100528.97;4992412;28;20045;-64
2022/04/04 05:38:34;;;;;;;15.23;9.27;;;;;;;0.90;100.00;100523.06;4992676;28;20018;-64
2022/04/04 05:41:00;;;;;;;15.07;8.45;;;;;;;1.53;100.00;100523.88;4992245;28;20033;-64
2022/04/04 05:43:26;;;;;;;18.73;9.88;;;;;;;1.97;98.97;100521.72;4990318;28;20494;-64
2022/04/04 05:45:53;;;;;;;14.27;9.18;;;;;;;1.91;94.03;100533.03;4991570;28;20133;-64
2022/04/04 05:48:18;;;;;;;17.58;10.75;;;;;;;1.95;90.66;100529.56;4991425;28;20124;-64
2022/04/04 05:50:44;;;;;;;13.98;9.98;;;;;;;1.84;88.83;100530.31;4991873;28;20137;-64
2022/04/04 05:53:09;;;;;;;16.90;9.35;;;;;;;1.76;88.35;100532.88;4992334;28;20034;-64
2022/04/04 05:55:35;;;;;;;15.93;9.15;;;;;;;1.74;88.78;100546.81;4992481;28;20429;-64
2022/04/04 05:58:00;;;;;;;14.25;8.48;;;;;;;1.71;88.92;100539.81;4992217;28;20033;-64
2022/04/04 06:00:26;;;;;;;12.65;8.48;;;;;;;1.85;88.13;100535.59;4992264;28;20099;-64
2022/04/04 06:02:51;;;;;;;14.23;7.95;;;;;;;1.91;87.77;100540.88;4992291;28;20033;-64
2022/04/04 06:05:17;;;;;;;11.40;6.53;;;;;;;2.40;89.22;100535.25;4991974;28;20138;-64
2022/04/04 06:07:43;;;;;;;12.60;7.13;;;;;;;2.92;85.47;100535.59;4991003;28;20039;-64
2022/04/04 06:10:10;;;;;;;32.45;18.27;;;;;;;3.28;83.74;100533.19;4990941;28;20022;-64
2022/04/04 06:12:39;;;;;;;39.33;20.92;;;;;;;3.89;80.98;100527.25;4992384;28;20027;-64
2022/04/04 06:15:05;;;;;;;22.88;11.57;;;;;;;4.55;75.86;100526.44;4992238;28;20514;-64
2022/04/04 06:17:30;;;;;;;135.68;49.50;;;;;;;5.95;70.03;100524.28;4992087;28;20120;-64
2022/04/04 06:19:56;;;;;;;60.80;30.48;;;;;;;7.19;65.27;100513.50;4991969;28;20030;-64
2022/04/04 06:22:25;;;;;;;25.73;15.55;;;;;;;8.04;60.61;100519.47;4992066;28;20018;-64
2022/04/04 06:24:51;;;;;;;16.20;9.65;;;;;;;9.01;55.02;100517.91;4991067;28;20030;-64
2022/04/04 06:27:16;;;;;;;17.52;8.60;;;;;;;10.05;51.41;100513.94;4990912;28;20053;-64
2022/04/04 06:29:43;;;;;;;14.45;7.47;;;;;;;10.33;50.41;100511.56;4990111;28;20080;-65
2022/04/04 06:32:10;;;;;;;11.85;6.38;;;;;;;10.89;47.54;100518.16;4974581;28;20118;-65
2022/04/04 06:34:36;;;;;;;15.70;11.07;;;;;;;11.14;46.72;100501.47;4991984;28;20030;-65
2022/04/04 06:37:02;;;;;;;11.75;6.35;;;;;;;11.56;46.73;100510.06;4991786;28;20045;-65
2022/04/04 06:39:28;;;;;;;10.68;6.30;;;;;;;11.84;45.70;100508.38;4990178;28;20448;-64
2022/04/04 06:41:53;;;;;;;10.88;7.00;;;;;;;12.51;44.46;100509.81;4991378;28;20105;-64
2022/04/04 06:44:18;;;;;;;12.27;7.05;;;;;;;12.37;42.93;100512.91;4991544;28;20050;-65
2022/04/04 06:46:44;;;;;;;10.75;6.70;;;;;;;12.45;42.18;100516.25;4990534;28;20030;-64
2022/04/04 06:49:09;;;;;;;9.75;6.18;;;;;;;12.88;42.23;100513.88;4974226;28;20432;-64
2022/04/04 06:51:35;;;;;;;9.88;5.85;;;;;;;12.70;41.57;100517.16;4991721;28;20206;-64
2022/04/04 06:54:04;;;;;;;9.48;5.63;;;;;;;12.48;42.90;100520.59;4991682;28;20026;-64
2022/04/04 06:56:34;;;;;;;9.93;7.00;;;;;;;11.74;42.53;100510.47;4991870;28;20022;-64
2022/04/04 06:59:00;;;;;;;11.27;5.53;;;;;;;11.27;45.03;100518.88;4991109;28;20339;-64
2022/04/04 07:01:25;;;;;;;9.55;5.43;;;;;;;11.66;45.05;100514.25;4991904;28;20026;-64
2022/04/04 07:03:51;;;;;;;11.48;5.18;;;;;;;12.24;43.32;100511.56;4989975;28;20339;-64
2022/04/04 07:06:16;;;;;;;6.15;4.45;;;;;;;12.39;43.08;100505.75;4992027;28;20033;-64
2022/04/04 07:08:43;;;;;;;7.18;4.85;;;;;;;11.78;43.46;100508.53;4995134;28;20105;-64
2022/04/04 07:11:10;;;;;;;8.52;5.03;;;;;;;11.17;44.50;100511.19;4995359;28;20026;-63
2022/04/04 07:13:37;;;;;;;8.27;4.60;;;;;;;11.53;44.62;100504.84;4994979;28;20082;-64
2022/04/04 07:16:03;;;;;;;8.90;5.28;;;;;;;11.65;43.69;100516.03;4994230;28;20018;-64
2022/04/04 07:18:29;;;;;;;6.43;4.38;;;;;;;11.84;44.94;100511.06;4994913;28;20041;-64
2022/04/04 07:20:54;;;;;;;10.00;4.43;;;;;;;11.91;44.22;100502.81;4994676;28;20030;-64
2022/04/04 07:23:20;;;;;;;10.48;4.60;;;;;;;11.26;44.97;100509.16;4994343;28;20038;-64
2022/04/04 07:25:47;;;;;;;10.48;4.85;;;;;;;10.79;46.29;100506.00;4993459;28;20495;-64
2022/04/04 07:28:14;;;;;;;6.45;3.65;;;;;;;10.95;46.69;100499.34;4994477;28;20031;-64
2022/04/04 07:30:39;;;;;;;7.25;4.25;;;;;;;10.85;47.64;100492.53;4993774;28;20030;-63
2022/04/04 07:33:08;;;;;;;6.63;4.32;;;;;;;11.02;46.51;100498.28;4993915;28;20018;-64
2022/04/04 07:35:33;;;;;;;6.53;3.53;;;;;;;10.86;47.17;100488.94;4994260;28;20113;-64
2022/04/04 07:37:59;;;;;;;11.60;5.07;;;;;;;10.46;47.68;100500.59;4994127;28;20032;-64
2022/04/04 07:40:24;;;;;;;6.57;4.13;;;;;;;10.38;47.07;100491.94;4994004;28;20026;-64
2022/04/04 07:42:50;;;;;;;7.50;5.25;;;;;;;10.04;47.51;100496.28;4994555;28;20026;-64
2022/04/04 07:45:16;;;;;;;6.00;4.35;;;;;;;10.07;47.20;100495.31;4993424;28;20067;-64
2022/04/04 07:47:43;;;;;;;7.60;4.45;;;;;;;9.67;47.57;100497.97;4993874;28;20029;-64
2022/04/04 07:50:12;;;;;;;8.23;4.28;;;;;;;9.15;48.21;100495.50;4993944;28;20426;-64
2022/04/04 07:52:37;;;;;;;7.43;4.45;;;;;;;9.24;49.25;100484.69;4994456;28;20058;-64
2022/04/04 07:55:04;;;;;;;7.53;4.38;;;;;;;9.81;49.50;100487.94;4994661;28;20022;-64
2022/04/04 07:57:29;;;;;;;8.90;4.93;;;;;;;9.75;47.45;100482.75;4993642;28;20034;-64
2022/04/04 07:59:54;;;;;;;13.55;5.30;;;;;;;9.17;48.38;100487.53;4994519;28;20018;-64
2022/04/04 08:02:20;;;;;;;9.75;5.65;;;;;;;9.59;48.74;100475.16;4994235;28;20102;-64
2022/04/04 08:04:46;;;;;;;9.68;5.65;;;;;;;9.88;48.67;100476.28;4994250;28;20030;-63
2022/04/04 08:07:12;;;;;;;11.05;5.18;;;;;;;9.35;48.78;100457.97;4994143;28;20026;-63
2022/04/04 08:09:38;;;;;;;6.90;4.82;;;;;;;9.33;49.46;100462.41;4989881;28;20018;-63
2022/04/04 08:12:03;;;;;;;9.90;5.10;;;;;;;9.26;49.81;100460.78;4993414;28;20038;-63
2022/04/04 08:14:29;;;;;;;7.82;4.93;;;;;;;9.20;49.15;100476.84;4993737;28;20029;-64
2022/04/04 08:16:55;;;;;;;9.52;5.45;;;;;;;9.73;49.94;100458.03;4993834;28;20514;-63
2022/04/04 08:19:20;;;;;;;9.68;5.43;;;;;;;10.28;48.53;100455.00;4993890;28;20433;-63
2022/04/04 08:21:46;;;;;;;10.10;5.18;;;;;;;10.59;46.90;100454.16;4994096;28;20795;-64
2022/04/04 08:24:15;;;;;;;10.40;5.70;;;;;;;11.00;47.34;100449.53;4993534;28;20394;-64
2022/04/04 08:26:41;;;;;;;10.02;5.93;;;;;;;11.25;45.99;100451.47;4992978;28;20026;-64
2022/04/04 08:29:10;;;;;;;8.30;5.40;;;;;;;10.90;46.05;100448.94;4993461;28;20504;-63
2022/04/04 08:31:37;;;;;;;9.00;4.72;;;;;;;10.19;46.77;100456.09;4994151;28;20367;-64
2022/04/04 08:34:03;;;;;;;8.68;5.40;;;;;;;9.97;49.28;100457.44;4990791;28;20018;-64
2022/04/04 08:36:28;;;;;;;8.38;4.97;;;;;;;10.34;47.29;100453.06;4992815;28;20088;-63
2022/04/04 08:38:54;;;;;;;9.98;4.72;;;;;;;10.58;48.00;100436.47;4993537;28;20028;-63
2022/04/04 08:41:21;;;;;;;6.25;4.32;;;;;;;11.08;46.42;100442.22;4993754;28;20496;-63
2022/04/04 08:43:49;;;;;;;7.43;5.00;;;;;;;11.22;46.41;100434.72;4993450;28;20026;-63
2022/04/04 08:46:16;;;;;;;7.72;4.88;;;;;;;11.33;45.11;100440.59;4992900;28;20076;-63
2022/04/04 08:48:42;;;;;;;9.18;5.40;;;;;;;11.48;44.95;100434.84;4993412;28;20022;-64
2022/04/04 08:51:08;;;;;;;7.70;5.15;;;;;;;11.65;45.22;100420.13;4975025;28;20510;-64
2022/04/04 08:53:36;;;;;;;9.18;5.45;;;;;;;11.95;45.65;100415.63;4993752;28;20180;-63
2022/04/04 08:56:02;;;;;;;8.85;4.82;;;;;;;12.01;44.15;100417.22;4992528;28;20022;-64
2022/04/04 08:58:28;;;;;;;8.05;5.10;;;;;;;12.04;44.01;100412.69;4992048;28;20109;-63
2022/04/04 09:00:53;;;;;;;9.32;4.68;;;;;;;11.71;44.18;100419.91;4992439;28;20113;-64
2022/04/04 09:03:26;;;;;;;8.82;5.10;;;;;;;11.58;44.21;100402.53;4992865;28;20610;-64
2022/04/04 09:05:53;;;;;;;11.57;5.15;;;;;;;12.02;43.41;100405.63;4992872;28;20110;-64
2022/04/04 09:08:20;;;;;;;9.52;4.78;;;;;;;12.00;43.87;100395.03;4992565;28;20109;-64
2022/04/04 09:10:45;;;;;;;8.45;4.80;;;;;;;12.45;42.78;100397.97;4992851;28;20044;-64
2022/04/04 09:13:16;;;;;;;7.45;4.78;;;;;;;12.89;43.32;100390.16;4992662;28;20541;-64
2022/04/04 09:16:02;;;;;;;8.55;4.72;;;;;;;12.75;40.62;100387.09;4992668;28;20030;-64
2022/04/04 09:18:37;;;;;;;6.63;3.80;;;;;;;12.39;42.02;100388.38;4993318;28;20482;-63
2022/04/04 09:21:08;;;;;;;8.52;5.20;;;;;;;12.68;42.43;100385.59;4991444;28;20028;-64
2022/04/04 09:23:35;;;;;;;7.18;4.13;;;;;;;12.61;43.14;100384.03;4992089;28;20033;-64
2022/04/04 09:26:01;;;;;;;8.65;5.15;;;;;;;12.80;42.91;100373.59;4992299;28;20105;-64
2022/04/04 09:28:27;;;;;;;9.95;5.07;;;;;;;12.94;42.96;100372.16;4992442;28;20030;-63
2022/04/04 09:31:07;;;;;;;8.27;4.82;;;;;;;13.32;41.57;100364.53;4993012;28;20030;-63
2022/04/04 09:33:39;;;;;;;10.68;5.35;;;;;;;13.49;40.79;100359.44;4992360;28;20073;-63
2022/04/04 09:36:06;;;;;;;7.43;4.78;;;;;;;13.01;40.77;100368.34;4991985;28;20494;-63
2022/04/04 09:38:36;;;;;;;8.05;4.95;;;;;;;13.35;41.59;100359.06;4991988;28;20037;-62
2022/04/04 09:41:21;;;;;;;6.88;4.30;;;;;;;13.57;39.77;100352.84;4992486;28;20052;-62
2022/04/04 09:43:54;;;;;;;7.72;4.68;;;;;;;14.03;41.75;100346.53;4992294;28;20030;-63
2022/04/04 09:46:21;;;;;;;8.02;4.95;;;;;;;14.36;41.07;100343.31;4991727;28;20073;-64
2022/04/04 09:49:05;;;;;;;8.70;4.65;;;;;;;14.28;39.17;100341.94;4991655;28;20446;-62
2022/04/04 09:51:43;;;;;;;8.02;4.55;;;;;;;14.29;39.41;100330.28;4991888;28;20120;-61
2022/04/04 09:54:13;;;;;;;6.30;4.60;;;;;;;14.20;38.85;100322.63;4992622;28;20046;-64
2022/04/04 09:56:38;;;;;;;8.25;4.57;;;;;;;14.21;37.71;100324.34;4992029;28;20022;-57
2022/04/04 09:59:05;;;;;;;5.88;3.95;;;;;;;13.91;38.14;100313.13;4992106;28;20403;-62
2022/04/04 10:01:33;;;;;;;6.85;4.20;;;;;;;13.33;39.03;100324.41;4991567;28;20409;-60
2022/04/04 10:04:00;;;;;;;7.75;5.20;;;;;;;13.74;39.92;100315.63;4992383;28;20470;-57
2022/04/04 10:06:28;;;;;;;8.07;4.28;;;;;;;13.96;39.40;100315.59;4991962;28;20065;-59
2022/04/04 10:08:59;;;;;;;9.65;4.30;;;;;;;14.28;38.22;100309.81;4990771;28;20034;-61
2022/04/04 10:11:26;;;;;;;6.97;4.35;;;;;;;14.17;37.90;100306.66;4991176;28;20054;-54
2022/04/04 10:13:52;;;;;;;8.77;4.88;;;;;;;14.19;39.38;100299.47;4991590;28;20030;-55
2022/04/04 10:16:18;;;;;;;8.13;5.22;;;;;;;14.28;39.78;100293.75;4991360;28;20138;-58
2022/04/04 10:18:45;;;;;;;6.93;4.75;;;;;;;14.22;37.90;100289.50;4992013;28;20046;-59
2022/04/04 10:21:11;;;;;;;9.00;5.05;;;;;;;14.64;38.40;100278.75;4991934;28;20033;-59
2022/04/04 10:23:39;;;;;;;8.48;5.18;;;;;;;14.62;37.73;100277.94;4991356;28;20144;-59
2022/04/04 10:26:34;;;;;;;6.72;4.75;;;;;;;14.12;35.48;100268.53;4991261;28;20030;-56
2022/04/04 10:29:14;;;;;;;7.88;4.57;;;;;;;13.86;35.38;100263.44;4973093;28;20110;-52
2022/04/04 10:31:50;;;;;;;10.40;5.47;;;;;;;14.53;38.65;100259.59;4972861;28;20032;-57
2022/04/04 10:34:21;;;;;;;7.30;4.30;;;;;;;14.82;35.75;100253.81;4989728;28;20058;-60
2022/04/04 10:37:01;;;;;;;10.65;5.65;;;;;;;14.69;39.37;100252.66;4992178;28;20033;-55
2022/04/04 10:39:32;;;;;;;7.13;5.20;;;;;;;15.20;35.71;100254.69;4990415;28;20037;-56
2022/04/04 10:41:58;;;;;;;9.00;4.50;;;;;;;15.24;34.81;100246.44;4993756;28;20513;-56
2022/04/04 10:44:49;;;;;;;8.73;5.28;;;;;;;14.92;34.75;100244.44;4995678;28;20038;-58
2022/04/04 10:47:22;;;;;;;7.93;4.07;;;;;;;14.78;35.64;100230.78;4995315;28;20050;-60
2022/04/04 10:49:48;;;;;;;10.02;5.18;;;;;;;14.21;35.71;100228.91;4995625;28;20525;-60
2022/04/04 10:52:18;;;;;;;7.80;4.47;;;;;;;13.99;37.67;100225.41;4995476;28;20192;-62
2022/04/04 10:54:43;;;;;;;6.18;4.18;;;;;;;14.48;38.10;100210.75;4995436;28;20014;-63
2022/04/04 10:57:16;;;;;;;7.00;4.80;;;;;;;14.00;34.83;100218.28;4995308;28;20045;-62
2022/04/04 10:59:46;;;;;;;8.05;5.03;;;;;;;13.37;37.99;100216.50;4994281;28;20022;-63
2022/04/04 11:02:15;;;;;;;8.73;5.20;;;;;;;13.39;37.74;100197.72;4995205;28;20034;-60
2022/04/04 11:07:41;;;;;;;7.20;4.97;;;;;;;14.71;34.54;100191.84;4995462;28;20122;-62
2022/04/04 11:10:09;;;;;;;7.88;5.35;;;;;;;14.36;36.29;100206.00;4995137;28;20031;-62
2022/04/04 11:12:57;;;;;;;7.00;4.68;;;;;;;13.93;35.24;100192.72;4995104;28;20545;-63
2022/04/04 11:15:42;;;;;;;9.70;5.25;;;;;;;14.91;36.83;100182.91;4994834;28;20389;-61
2022/04/04 11:18:08;;;;;;;7.22;4.80;;;;;;;15.23;33.48;100191.13;4994415;28;20138;-62
2022/04/04 11:20:34;;;;;;;7.45;4.95;;;;;;;15.06;34.78;100169.63;4994965;28;20039;-63
2022/04/04 11:23:04;;;;;;;7.88;4.95;;;;;;;15.20;35.10;100177.88;4995017;28;20062;-61
2022/04/04 11:25:39;;;;;;;8.20;4.85;;;;;;;14.94;35.29;100178.22;4994738;28;20359;-61